sensor_id;sensor_type;location;lat;lon;timestamp;P1;durP1;ratioP1;P2;durP2;ratioP2
13112;SDS011;6622;49.752;6.100;2022-09-28T00:01:59;3.20;;;1.00;;
13112;SDS011;6622;49.752;6.100;2022-09-28T00:04:26;1.20;;;0.70;;
13112;SDS011;6622;49.752;6.100;2022-09-28T00:06:52;2.63;;;0.80;;
13112;SDS011;6622;49.752;6.100;2022-09-28T00:09:20;1.77;;;1.30;;
13112;SDS011;6622;49.752;6.100;2022-09-28T00:11:46;3.70;;;1.03;;
13112;SDS011;6622;49.752;6.100;2022-09-28T00:14:13;3.20;;;0.90;;
13112;SDS011;6622;49.752;6.100;2022-09-28T00:16:40;2.87;;;1.00;;
13112;SDS011;6622;49.752;6.100;2022-09-28T00:19:06;1.90;;;0.83;;
13112;SDS011;6622;49.752;6.100;2022-09-28T00:21:34;5.40;;;1.08;;
13112;SDS011;6622;49.752;6.100;2022-09-28T00:24:00;3.13;;;1.07;;
13112;SDS011;6622;49.752;6.100;2022-09-28T00:26:39;3.15;;;1.20;;
13112;SDS011;6622;49.752;6.100;2022-09-28T00:29:11;3.62;;;1.00;;
13112;SDS011;6622;49.752;6.100;2022-09-28T00:31:34;2.10;;;1.00;;
13112;SDS011;6622;49.752;6.100;2022-09-28T00:34:01;1.80;;;1.10;;
13112;SDS011;6622;49.752;6.100;2022-09-28T00:36:27;2.40;;;1.00;;
13112;SDS011;6622;49.752;6.100;2022-09-28T00:38:54;3.20;;;0.97;;
13112;SDS011;6622;49.752;6.100;2022-09-28T00:41:21;2.83;;;1.17;;
13112;SDS011;6622;49.752;6.100;2022-09-28T00:43:48;3.03;;;1.00;;
13112;SDS011;6622;49.752;6.100;2022-09-28T00:46:17;0.80;;;0.80;;
13112;SDS011;6622;49.752;6.100;2022-09-28T00:48:48;2.10;;;1.20;;
13112;SDS011;6622;49.752;6.100;2022-09-28T00:51:11;1.73;;;0.90;;
13112;SDS011;6622;49.752;6.100;2022-09-28T00:53:38;2.60;;;0.83;;
13112;SDS011;6622;49.752;6.100;2022-09-28T00:56:05;4.20;;;1.03;;
13112;SDS011;6622;49.752;6.100;2022-09-28T00:58:32;1.33;;;0.70;;
13112;SDS011;6622;49.752;6.100;2022-09-28T01:00:58;4.93;;;0.80;;
13112;SDS011;6622;49.752;6.100;2022-09-28T01:03:25;5.67;;;1.10;;
13112;SDS011;6622;49.752;6.100;2022-09-28T01:05:51;1.93;;;1.00;;
13112;SDS011;6622;49.752;6.100;2022-09-28T01:08:19;6.67;;;1.20;;
13112;SDS011;6622;49.752;6.100;2022-09-28T01:10:46;2.00;;;1.17;;
13112;SDS011;6622;49.752;6.100;2022-09-28T01:13:12;3.07;;;0.73;;
13112;SDS011;6622;49.752;6.100;2022-09-28T01:15:42;1.23;;;0.80;;
13112;SDS011;6622;49.752;6.100;2022-09-28T01:20:53;3.90;;;1.10;;
13112;SDS011;6622;49.752;6.100;2022-09-28T01:23:31;2.57;;;1.20;;
13112;SDS011;6622;49.752;6.100;2022-09-28T01:28:54;2.87;;;1.03;;
13112;SDS011;6622;49.752;6.100;2022-09-28T01:31:20;2.67;;;0.90;;
13112;SDS011;6622;49.752;6.100;2022-09-28T01:33:58;3.67;;;1.17;;
13112;SDS011;6622;49.752;6.100;2022-09-28T01:36:33;2.53;;;1.23;;
13112;SDS011;6622;49.752;6.100;2022-09-28T01:38:56;0.97;;;0.60;;
13112;SDS011;6622;49.752;6.100;2022-09-28T01:41:22;2.43;;;0.90;;
13112;SDS011;6622;49.752;6.100;2022-09-28T01:43:52;0.77;;;0.57;;
13112;SDS011;6622;49.752;6.100;2022-09-28T01:46:19;1.63;;;1.07;;
13112;SDS011;6622;49.752;6.100;2022-09-28T01:48:53;1.67;;;0.83;;
13112;SDS011;6622;49.752;6.100;2022-09-28T01:54:04;5.93;;;1.13;;
13112;SDS011;6622;49.752;6.100;2022-09-28T01:56:36;2.30;;;1.13;;
13112;SDS011;6622;49.752;6.100;2022-09-28T01:58:59;1.50;;;0.93;;
13112;SDS011;6622;49.752;6.100;2022-09-28T02:01:28;2.80;;;0.90;;
13112;SDS011;6622;49.752;6.100;2022-09-28T02:04:11;2.57;;;1.20;;
13112;SDS011;6622;49.752;6.100;2022-09-28T02:06:36;1.87;;;0.93;;
13112;SDS011;6622;49.752;6.100;2022-09-28T02:09:03;3.37;;;1.48;;
13112;SDS011;6622;49.752;6.100;2022-09-28T02:11:28;5.87;;;1.33;;
13112;SDS011;6622;49.752;6.100;2022-09-28T02:14:03;4.60;;;0.93;;
13112;SDS011;6622;49.752;6.100;2022-09-28T02:16:38;2.17;;;0.83;;
13112;SDS011;6622;49.752;6.100;2022-09-28T02:19:09;1.93;;;1.07;;
13112;SDS011;6622;49.752;6.100;2022-09-28T02:21:41;5.12;;;1.00;;
13112;SDS011;6622;49.752;6.100;2022-09-28T02:24:12;1.43;;;1.00;;
13112;SDS011;6622;49.752;6.100;2022-09-28T02:26:37;5.70;;;0.90;;
13112;SDS011;6622;49.752;6.100;2022-09-28T02:29:02;3.63;;;1.07;;
13112;SDS011;6622;49.752;6.100;2022-09-28T02:31:29;5.20;;;1.03;;
13112;SDS011;6622;49.752;6.100;2022-09-28T02:33:56;4.37;;;1.07;;
13112;SDS011;6622;49.752;6.100;2022-09-28T02:36:26;2.30;;;1.00;;
13112;SDS011;6622;49.752;6.100;2022-09-28T02:38:53;2.37;;;0.90;;
13112;SDS011;6622;49.752;6.100;2022-09-28T02:41:30;2.23;;;0.80;;
13112;SDS011;6622;49.752;6.100;2022-09-28T02:46:58;3.47;;;1.10;;
13112;SDS011;6622;49.752;6.100;2022-09-28T02:49:31;3.50;;;1.00;;
13112;SDS011;6622;49.752;6.100;2022-09-28T02:57:44;2.50;;;1.40;;
13112;SDS011;6622;49.752;6.100;2022-09-28T03:00:07;1.70;;;1.00;;
13112;SDS011;6622;49.752;6.100;2022-09-28T03:05:42;3.60;;;0.90;;
13112;SDS011;6622;49.752;6.100;2022-09-28T03:08:09;1.93;;;1.17;;
13112;SDS011;6622;49.752;6.100;2022-09-28T03:10:49;2.10;;;1.17;;
13112;SDS011;6622;49.752;6.100;2022-09-28T03:13:20;1.57;;;1.00;;
13112;SDS011;6622;49.752;6.100;2022-09-28T03:15:47;6.67;;;1.07;;
13112;SDS011;6622;49.752;6.100;2022-09-28T03:18:13;4.00;;;1.60;;
13112;SDS011;6622;49.752;6.100;2022-09-28T03:20:40;2.10;;;1.20;;
13112;SDS011;6622;49.752;6.100;2022-09-28T03:23:07;2.83;;;0.90;;
13112;SDS011;6622;49.752;6.100;2022-09-28T03:25:34;4.07;;;1.00;;
13112;SDS011;6622;49.752;6.100;2022-09-28T03:28:01;1.83;;;1.10;;
13112;SDS011;6622;49.752;6.100;2022-09-28T03:30:27;2.03;;;1.10;;
13112;SDS011;6622;49.752;6.100;2022-09-28T03:32:58;1.07;;;0.73;;
13112;SDS011;6622;49.752;6.100;2022-09-28T03:35:24;2.73;;;0.90;;
13112;SDS011;6622;49.752;6.100;2022-09-28T03:37:54;5.30;;;1.10;;
13112;SDS011;6622;49.752;6.100;2022-09-28T03:40:20;3.13;;;0.93;;
13112;SDS011;6622;49.752;6.100;2022-09-28T03:42:47;1.83;;;1.00;;
13112;SDS011;6622;49.752;6.100;2022-09-28T03:45:13;1.60;;;0.80;;
13112;SDS011;6622;49.752;6.100;2022-09-28T03:47:43;0.80;;;0.80;;
13112;SDS011;6622;49.752;6.100;2022-09-28T03:50:09;4.07;;;1.50;;
13112;SDS011;6622;49.752;6.100;2022-09-28T03:52:36;1.20;;;0.80;;
13112;SDS011;6622;49.752;6.100;2022-09-28T03:55:02;2.75;;;1.20;;
13112;SDS011;6622;49.752;6.100;2022-09-28T03:57:29;1.63;;;1.27;;
13112;SDS011;6622;49.752;6.100;2022-09-28T03:59:57;3.17;;;1.30;;
13112;SDS011;6622;49.752;6.100;2022-09-28T04:02:23;1.80;;;0.90;;
13112;SDS011;6622;49.752;6.100;2022-09-28T04:04:50;3.20;;;0.80;;
13112;SDS011;6622;49.752;6.100;2022-09-28T04:07:17;1.30;;;1.20;;
13112;SDS011;6622;49.752;6.100;2022-09-28T04:09:44;4.63;;;1.23;;
13112;SDS011;6622;49.752;6.100;2022-09-28T04:12:10;1.57;;;1.10;;
13112;SDS011;6622;49.752;6.100;2022-09-28T04:14:38;1.90;;;1.10;;
13112;SDS011;6622;49.752;6.100;2022-09-28T04:17:04;1.03;;;0.80;;
13112;SDS011;6622;49.752;6.100;2022-09-28T04:19:31;2.67;;;1.20;;
13112;SDS011;6622;49.752;6.100;2022-09-28T04:21:58;2.27;;;1.17;;
13112;SDS011;6622;49.752;6.100;2022-09-28T04:24:24;4.27;;;1.50;;
13112;SDS011;6622;49.752;6.100;2022-09-28T04:26:51;4.20;;;1.20;;
13112;SDS011;6622;49.752;6.100;2022-09-28T04:29:17;1.33;;;1.10;;
13112;SDS011;6622;49.752;6.100;2022-09-28T04:31:45;2.43;;;1.00;;
13112;SDS011;6622;49.752;6.100;2022-09-28T04:34:11;1.37;;;0.93;;
13112;SDS011;6622;49.752;6.100;2022-09-28T04:36:38;2.85;;;2.00;;
13112;SDS011;6622;49.752;6.100;2022-09-28T04:39:05;1.73;;;1.00;;
13112;SDS011;6622;49.752;6.100;2022-09-28T04:41:31;2.47;;;1.40;;
13112;SDS011;6622;49.752;6.100;2022-09-28T04:43:58;2.03;;;1.20;;
13112;SDS011;6622;49.752;6.100;2022-09-28T04:46:25;2.07;;;1.57;;
13112;SDS011;6622;49.752;6.100;2022-09-28T04:48:51;2.40;;;1.60;;
13112;SDS011;6622;49.752;6.100;2022-09-28T04:51:18;2.90;;;1.65;;
13112;SDS011;6622;49.752;6.100;2022-09-28T04:53:44;2.00;;;1.47;;
13112;SDS011;6622;49.752;6.100;2022-09-28T04:56:12;4.60;;;1.33;;
13112;SDS011;6622;49.752;6.100;2022-09-28T04:58:40;1.73;;;1.03;;
13112;SDS011;6622;49.752;6.100;2022-09-28T05:01:08;2.73;;;1.47;;
13112;SDS011;6622;49.752;6.100;2022-09-28T05:03:33;3.62;;;1.90;;
13112;SDS011;6622;49.752;6.100;2022-09-28T05:06:00;3.07;;;1.53;;
13112;SDS011;6622;49.752;6.100;2022-09-28T05:08:27;2.57;;;1.37;;
13112;SDS011;6622;49.752;6.100;2022-09-28T05:10:57;2.57;;;1.47;;
13112;SDS011;6622;49.752;6.100;2022-09-28T05:13:23;3.50;;;1.50;;
13112;SDS011;6622;49.752;6.100;2022-09-28T05:15:51;2.93;;;1.60;;
13112;SDS011;6622;49.752;6.100;2022-09-28T05:18:16;2.77;;;1.47;;
13112;SDS011;6622;49.752;6.100;2022-09-28T05:20:43;5.65;;;2.10;;
13112;SDS011;6622;49.752;6.100;2022-09-28T05:23:10;4.87;;;2.07;;
13112;SDS011;6622;49.752;6.100;2022-09-28T05:25:36;2.60;;;1.50;;
13112;SDS011;6622;49.752;6.100;2022-09-28T05:28:03;5.03;;;1.87;;
13112;SDS011;6622;49.752;6.100;2022-09-28T05:30:29;4.25;;;2.17;;
13112;SDS011;6622;49.752;6.100;2022-09-28T05:32:56;2.73;;;1.47;;
13112;SDS011;6622;49.752;6.100;2022-09-28T05:35:22;5.12;;;2.03;;
13112;SDS011;6622;49.752;6.100;2022-09-28T05:37:49;3.00;;;1.60;;
13112;SDS011;6622;49.752;6.100;2022-09-28T05:40:16;4.00;;;1.67;;
13112;SDS011;6622;49.752;6.100;2022-09-28T05:42:42;4.87;;;1.83;;
13112;SDS011;6622;49.752;6.100;2022-09-28T05:45:09;5.97;;;1.50;;
13112;SDS011;6622;49.752;6.100;2022-09-28T05:47:36;5.53;;;1.70;;
13112;SDS011;6622;49.752;6.100;2022-09-28T05:50:02;4.80;;;1.50;;
13112;SDS011;6622;49.752;6.100;2022-09-28T05:52:29;5.00;;;2.37;;
13112;SDS011;6622;49.752;6.100;2022-09-28T05:54:55;3.15;;;1.90;;
13112;SDS011;6622;49.752;6.100;2022-09-28T05:57:22;4.93;;;2.20;;
13112;SDS011;6622;49.752;6.100;2022-09-28T05:59:49;6.70;;;3.43;;
13112;SDS011;6622;49.752;6.100;2022-09-28T06:02:16;6.27;;;3.83;;
13112;SDS011;6622;49.752;6.100;2022-09-28T06:04:43;4.63;;;2.83;;
13112;SDS011;6622;49.752;6.100;2022-09-28T06:07:10;5.63;;;2.83;;
13112;SDS011;6622;49.752;6.100;2022-09-28T06:09:37;4.40;;;2.37;;
13112;SDS011;6622;49.752;6.100;2022-09-28T06:12:03;3.83;;;2.50;;
13112;SDS011;6622;49.752;6.100;2022-09-28T06:14:31;4.60;;;2.40;;
13112;SDS011;6622;49.752;6.100;2022-09-28T06:16:57;4.83;;;2.20;;
13112;SDS011;6622;49.752;6.100;2022-09-28T06:19:24;3.37;;;1.90;;
13112;SDS011;6622;49.752;6.100;2022-09-28T06:21:51;2.50;;;2.07;;
13112;SDS011;6622;49.752;6.100;2022-09-28T06:24:18;3.00;;;2.10;;
13112;SDS011;6622;49.752;6.100;2022-09-28T06:26:45;7.27;;;2.27;;
13112;SDS011;6622;49.752;6.100;2022-09-28T06:29:12;4.07;;;2.63;;
13112;SDS011;6622;49.752;6.100;2022-09-28T06:31:39;4.70;;;2.20;;
13112;SDS011;6622;49.752;6.100;2022-09-28T06:34:05;3.57;;;2.03;;
13112;SDS011;6622;49.752;6.100;2022-09-28T06:36:33;3.30;;;2.43;;
13112;SDS011;6622;49.752;6.100;2022-09-28T06:38:59;4.87;;;2.33;;
13112;SDS011;6622;49.752;6.100;2022-09-28T06:41:26;3.60;;;2.90;;
13112;SDS011;6622;49.752;6.100;2022-09-28T06:43:52;4.20;;;2.20;;
13112;SDS011;6622;49.752;6.100;2022-09-28T06:46:19;3.07;;;2.73;;
13112;SDS011;6622;49.752;6.100;2022-09-28T06:48:46;4.90;;;3.17;;
13112;SDS011;6622;49.752;6.100;2022-09-28T06:51:12;3.07;;;2.50;;
13112;SDS011;6622;49.752;6.100;2022-09-28T06:53:39;5.17;;;2.17;;
13112;SDS011;6622;49.752;6.100;2022-09-28T06:56:08;2.37;;;1.93;;
13112;SDS011;6622;49.752;6.100;2022-09-28T06:58:35;5.30;;;1.80;;
13112;SDS011;6622;49.752;6.100;2022-09-28T07:01:01;2.57;;;2.27;;
13112;SDS011;6622;49.752;6.100;2022-09-28T07:03:28;3.53;;;1.90;;
13112;SDS011;6622;49.752;6.100;2022-09-28T07:05:55;3.33;;;2.17;;
13112;SDS011;6622;49.752;6.100;2022-09-28T07:08:22;2.50;;;2.20;;
13112;SDS011;6622;49.752;6.100;2022-09-28T07:10:51;3.43;;;2.27;;
13112;SDS011;6622;49.752;6.100;2022-09-28T07:13:24;4.33;;;2.17;;
13112;SDS011;6622;49.752;6.100;2022-09-28T07:15:53;4.00;;;1.90;;
13112;SDS011;6622;49.752;6.100;2022-09-28T07:18:22;4.20;;;2.40;;
13112;SDS011;6622;49.752;6.100;2022-09-28T07:20:48;3.70;;;2.33;;
13112;SDS011;6622;49.752;6.100;2022-09-28T07:23:15;3.07;;;2.20;;
13112;SDS011;6622;49.752;6.100;2022-09-28T07:25:42;3.93;;;2.20;;
13112;SDS011;6622;49.752;6.100;2022-09-28T07:28:08;4.00;;;2.17;;
13112;SDS011;6622;49.752;6.100;2022-09-28T07:30:35;2.20;;;2.00;;
13112;SDS011;6622;49.752;6.100;2022-09-28T07:33:03;5.70;;;2.33;;
13112;SDS011;6622;49.752;6.100;2022-09-28T07:35:29;4.83;;;1.97;;
13112;SDS011;6622;49.752;6.100;2022-09-28T07:37:56;2.20;;;1.93;;
13112;SDS011;6622;49.752;6.100;2022-09-28T07:40:25;3.70;;;2.00;;
13112;SDS011;6622;49.752;6.100;2022-09-28T07:43:10;5.00;;;2.20;;
13112;SDS011;6622;49.752;6.100;2022-09-28T07:45:37;5.65;;;2.78;;
13112;SDS011;6622;49.752;6.100;2022-09-28T07:48:03;3.73;;;2.40;;
13112;SDS011;6622;49.752;6.100;2022-09-28T07:50:30;3.17;;;2.37;;
13112;SDS011;6622;49.752;6.100;2022-09-28T07:52:57;3.90;;;2.27;;
13112;SDS011;6622;49.752;6.100;2022-09-28T07:55:23;2.50;;;2.20;;
13112;SDS011;6622;49.752;6.100;2022-09-28T07:57:56;3.93;;;2.10;;
13112;SDS011;6622;49.752;6.100;2022-09-28T08:00:28;4.43;;;2.20;;
13112;SDS011;6622;49.752;6.100;2022-09-28T08:02:57;5.23;;;2.20;;
13112;SDS011;6622;49.752;6.100;2022-09-28T08:05:22;5.07;;;2.17;;
13112;SDS011;6622;49.752;6.100;2022-09-28T08:07:48;2.80;;;1.80;;
13112;SDS011;6622;49.752;6.100;2022-09-28T08:10:15;3.73;;;2.40;;
13112;SDS011;6622;49.752;6.100;2022-09-28T08:12:41;3.77;;;1.80;;
13112;SDS011;6622;49.752;6.100;2022-09-28T08:15:08;2.57;;;2.07;;
13112;SDS011;6622;49.752;6.100;2022-09-28T08:17:35;4.50;;;2.20;;
13112;SDS011;6622;49.752;6.100;2022-09-28T08:20:01;3.13;;;1.83;;
13112;SDS011;6622;49.752;6.100;2022-09-28T08:22:46;5.47;;;2.67;;
13112;SDS011;6622;49.752;6.100;2022-09-28T08:25:13;3.20;;;2.13;;
13112;SDS011;6622;49.752;6.100;2022-09-28T08:27:39;3.50;;;2.42;;
13112;SDS011;6622;49.752;6.100;2022-09-28T08:30:06;2.78;;;2.50;;
13112;SDS011;6622;49.752;6.100;2022-09-28T08:32:33;3.00;;;1.73;;
13112;SDS011;6622;49.752;6.100;2022-09-28T08:34:59;3.63;;;2.20;;
13112;SDS011;6622;49.752;6.100;2022-09-28T08:37:26;5.70;;;2.10;;
13112;SDS011;6622;49.752;6.100;2022-09-28T08:39:53;3.13;;;2.07;;
13112;SDS011;6622;49.752;6.100;2022-09-28T08:42:29;3.97;;;2.13;;
13112;SDS011;6622;49.752;6.100;2022-09-28T08:45:05;7.17;;;2.40;;
13112;SDS011;6622;49.752;6.100;2022-09-28T08:50:40;3.67;;;2.20;;
13112;SDS011;6622;49.752;6.100;2022-09-28T08:53:14;4.63;;;1.80;;
13112;SDS011;6622;49.752;6.100;2022-09-28T08:55:52;2.73;;;1.87;;
13112;SDS011;6622;49.752;6.100;2022-09-28T08:58:21;4.17;;;1.90;;
13112;SDS011;6622;49.752;6.100;2022-09-28T09:00:49;2.67;;;1.80;;
13112;SDS011;6622;49.752;6.100;2022-09-28T09:03:17;4.87;;;1.90;;
13112;SDS011;6622;49.752;6.100;2022-09-28T09:08:29;3.67;;;1.80;;
13112;SDS011;6622;49.752;6.100;2022-09-28T09:11:02;4.07;;;1.60;;
13112;SDS011;6622;49.752;6.100;2022-09-28T09:13:57;4.40;;;1.90;;
13112;SDS011;6622;49.752;6.100;2022-09-28T09:24:26;3.03;;;1.60;;
13112;SDS011;6622;49.752;6.100;2022-09-28T09:27:07;2.63;;;2.07;;
13112;SDS011;6622;49.752;6.100;2022-09-28T09:29:36;9.30;;;5.17;;
13112;SDS011;6622;49.752;6.100;2022-09-28T09:40:25;2.97;;;1.80;;
13112;SDS011;6622;49.752;6.100;2022-09-28T09:43:59;3.23;;;1.70;;
13112;SDS011;6622;49.752;6.100;2022-09-28T09:45:33;3.97;;;1.43;;
13112;SDS011;6622;49.752;6.100;2022-09-28T09:48:01;6.20;;;1.63;;
13112;SDS011;6622;49.752;6.100;2022-09-28T09:50:31;2.40;;;1.37;;
13112;SDS011;6622;49.752;6.100;2022-09-28T09:52:57;2.20;;;1.20;;
13112;SDS011;6622;49.752;6.100;2022-09-28T09:55:29;2.23;;;1.00;;
13112;SDS011;6622;49.752;6.100;2022-09-28T10:00:33;2.30;;;1.10;;
13112;SDS011;6622;49.752;6.100;2022-09-28T10:03:00;2.10;;;1.80;;
13112;SDS011;6622;49.752;6.100;2022-09-28T10:05:28;7.77;;;2.33;;
13112;SDS011;6622;49.752;6.100;2022-09-28T10:10:28;2.50;;;1.60;;
13112;SDS011;6622;49.752;6.100;2022-09-28T10:12:57;3.43;;;1.17;;
13112;SDS011;6622;49.752;6.100;2022-09-28T10:15:25;3.53;;;1.20;;
13112;SDS011;6622;49.752;6.100;2022-09-28T10:17:50;5.73;;;1.50;;
13112;SDS011;6622;49.752;6.100;2022-09-28T10:20:17;2.45;;;1.62;;
13112;SDS011;6622;49.752;6.100;2022-09-28T10:22:44;2.63;;;1.60;;
13112;SDS011;6622;49.752;6.100;2022-09-28T10:25:11;1.67;;;1.20;;
13112;SDS011;6622;49.752;6.100;2022-09-28T10:27:38;2.60;;;1.20;;
13112;SDS011;6622;49.752;6.100;2022-09-28T10:30:16;2.07;;;1.30;;
13112;SDS011;6622;49.752;6.100;2022-09-28T10:32:41;1.50;;;1.10;;
13112;SDS011;6622;49.752;6.100;2022-09-28T10:35:21;2.20;;;1.17;;
13112;SDS011;6622;49.752;6.100;2022-09-28T10:38:02;2.13;;;1.60;;
13112;SDS011;6622;49.752;6.100;2022-09-28T10:40:41;3.93;;;1.30;;
13112;SDS011;6622;49.752;6.100;2022-09-28T10:43:22;4.20;;;1.20;;
13112;SDS011;6622;49.752;6.100;2022-09-28T10:45:48;2.63;;;1.40;;
13112;SDS011;6622;49.752;6.100;2022-09-28T10:48:18;1.73;;;1.30;;
13112;SDS011;6622;49.752;6.100;2022-09-28T10:50:55;2.03;;;1.33;;
13112;SDS011;6622;49.752;6.100;2022-09-28T10:53:20;4.27;;;1.60;;
13112;SDS011;6622;49.752;6.100;2022-09-28T10:55:37;1.50;;;1.13;;
13112;SDS011;6622;49.752;6.100;2022-09-28T10:58:21;1.70;;;1.33;;
13112;SDS011;6622;49.752;6.100;2022-09-28T11:00:43;4.17;;;1.63;;
13112;SDS011;6622;49.752;6.100;2022-09-28T11:03:19;3.23;;;1.63;;
13112;SDS011;6622;49.752;6.100;2022-09-28T11:05:42;2.40;;;1.20;;
13112;SDS011;6622;49.752;6.100;2022-09-28T11:08:14;3.50;;;1.50;;
13112;SDS011;6622;49.752;6.100;2022-09-28T11:10:35;2.33;;;0.90;;
13112;SDS011;6622;49.752;6.100;2022-09-28T11:13:03;1.47;;;1.30;;
13112;SDS011;6622;49.752;6.100;2022-09-28T11:15:30;3.03;;;1.63;;
13112;SDS011;6622;49.752;6.100;2022-09-28T11:17:56;2.17;;;1.03;;
13112;SDS011;6622;49.752;6.100;2022-09-28T11:22:50;2.13;;;0.93;;
13112;SDS011;6622;49.752;6.100;2022-09-28T11:30:36;3.62;;;1.48;;
13112;SDS011;6622;49.752;6.100;2022-09-28T11:33:01;2.83;;;1.40;;
13112;SDS011;6622;49.752;6.100;2022-09-28T11:38:14;2.10;;;1.30;;
13112;SDS011;6622;49.752;6.100;2022-09-28T11:43:34;1.33;;;1.10;;
13112;SDS011;6622;49.752;6.100;2022-09-28T11:48:23;1.60;;;1.30;;
13112;SDS011;6622;49.752;6.100;2022-09-28T11:50:50;5.23;;;1.20;;
13112;SDS011;6622;49.752;6.100;2022-09-28T11:53:20;1.33;;;1.00;;
13112;SDS011;6622;49.752;6.100;2022-09-28T11:56:05;5.03;;;1.10;;
13112;SDS011;6622;49.752;6.100;2022-09-28T11:58:52;1.47;;;0.70;;
13112;SDS011;6622;49.752;6.100;2022-09-28T12:01:26;2.90;;;1.07;;
13112;SDS011;6622;49.752;6.100;2022-09-28T12:03:54;1.73;;;1.10;;
13112;SDS011;6622;49.752;6.100;2022-09-28T12:06:23;1.97;;;1.10;;
13112;SDS011;6622;49.752;6.100;2022-09-28T12:08:53;3.10;;;1.20;;
13112;SDS011;6622;49.752;6.100;2022-09-28T12:11:24;2.60;;;1.37;;
13112;SDS011;6622;49.752;6.100;2022-09-28T12:13:48;2.30;;;1.20;;
13112;SDS011;6622;49.752;6.100;2022-09-28T12:16:15;1.53;;;0.93;;
13112;SDS011;6622;49.752;6.100;2022-09-28T12:26:51;3.60;;;1.30;;
13112;SDS011;6622;49.752;6.100;2022-09-28T12:29:25;6.30;;;1.40;;
13112;SDS011;6622;49.752;6.100;2022-09-28T12:32:01;3.10;;;1.10;;
13112;SDS011;6622;49.752;6.100;2022-09-28T12:34:24;6.10;;;1.50;;
13112;SDS011;6622;49.752;6.100;2022-09-28T12:39:52;1.77;;;1.20;;
13112;SDS011;6622;49.752;6.100;2022-09-28T12:42:25;2.20;;;1.40;;
13112;SDS011;6622;49.752;6.100;2022-09-28T12:45:10;2.23;;;1.20;;
13112;SDS011;6622;49.752;6.100;2022-09-28T12:48:00;2.40;;;1.03;;
13112;SDS011;6622;49.752;6.100;2022-09-28T12:50:26;2.87;;;1.40;;
13112;SDS011;6622;49.752;6.100;2022-09-28T12:56:00;5.20;;;1.17;;
13112;SDS011;6622;49.752;6.100;2022-09-28T13:01:15;1.63;;;1.20;;
13112;SDS011;6622;49.752;6.100;2022-09-28T13:03:44;1.93;;;1.47;;
13112;SDS011;6622;49.752;6.100;2022-09-28T13:06:18;4.57;;;1.00;;
13112;SDS011;6622;49.752;6.100;2022-09-28T13:09:13;3.43;;;1.03;;
13112;SDS011;6622;49.752;6.100;2022-09-28T13:19:51;2.60;;;1.30;;
13112;SDS011;6622;49.752;6.100;2022-09-28T13:22:32;3.40;;;1.10;;
13112;SDS011;6622;49.752;6.100;2022-09-28T13:25:02;3.03;;;1.30;;
13112;SDS011;6622;49.752;6.100;2022-09-28T13:27:28;2.93;;;1.30;;
13112;SDS011;6622;49.752;6.100;2022-09-28T13:29:55;4.80;;;1.60;;
13112;SDS011;6622;49.752;6.100;2022-09-28T13:32:22;3.30;;;0.93;;
13112;SDS011;6622;49.752;6.100;2022-09-28T13:34:48;4.67;;;1.00;;
13112;SDS011;6622;49.752;6.100;2022-09-28T13:42:59;4.00;;;1.30;;
13112;SDS011;6622;49.752;6.100;2022-09-28T13:44:44;2.47;;;1.20;;
13112;SDS011;6622;49.752;6.100;2022-09-28T13:47:35;2.60;;;1.20;;
13112;SDS011;6622;49.752;6.100;2022-09-28T13:50:17;3.53;;;1.20;;
13112;SDS011;6622;49.752;6.100;2022-09-28T13:58:22;8.83;;;4.50;;
13112;SDS011;6622;49.752;6.100;2022-09-28T14:00:56;6.82;;;3.30;;
13112;SDS011;6622;49.752;6.100;2022-09-28T14:06:30;3.93;;;1.73;;
13112;SDS011;6622;49.752;6.100;2022-09-28T14:11:40;2.97;;;1.40;;
13112;SDS011;6622;49.752;6.100;2022-09-28T14:16:37;4.20;;;1.30;;
13112;SDS011;6622;49.752;6.100;2022-09-28T14:19:08;1.47;;;1.00;;
13112;SDS011;6622;49.752;6.100;2022-09-28T14:24:27;3.87;;;1.43;;
13112;SDS011;6622;49.752;6.100;2022-09-28T14:27:18;1.07;;;0.90;;
13112;SDS011;6622;49.752;6.100;2022-09-28T14:30:14;2.60;;;1.23;;
13112;SDS011;6622;49.752;6.100;2022-09-28T14:32:33;1.53;;;0.67;;
13112;SDS011;6622;49.752;6.100;2022-09-28T14:35:00;1.23;;;1.00;;
13112;SDS011;6622;49.752;6.100;2022-09-28T14:37:27;1.57;;;1.03;;
13112;SDS011;6622;49.752;6.100;2022-09-28T14:40:19;2.83;;;1.20;;
13112;SDS011;6622;49.752;6.100;2022-09-28T14:43:19;1.00;;;0.80;;
13112;SDS011;6622;49.752;6.100;2022-09-28T14:45:44;1.90;;;1.02;;
13112;SDS011;6622;49.752;6.100;2022-09-28T14:48:13;1.03;;;0.80;;
13112;SDS011;6622;49.752;6.100;2022-09-28T14:50:38;1.33;;;0.90;;
13112;SDS011;6622;49.752;6.100;2022-09-28T14:53:11;1.20;;;0.90;;
13112;SDS011;6622;49.752;6.100;2022-09-28T14:55:44;2.30;;;1.23;;
13112;SDS011;6622;49.752;6.100;2022-09-28T14:58:14;1.13;;;0.67;;
13112;SDS011;6622;49.752;6.100;2022-09-28T15:00:36;0.80;;;0.80;;
13112;SDS011;6622;49.752;6.100;2022-09-28T15:03:02;1.47;;;1.00;;
13112;SDS011;6622;49.752;6.100;2022-09-28T15:05:31;1.87;;;1.10;;
13112;SDS011;6622;49.752;6.100;2022-09-28T15:07:56;1.90;;;0.80;;
13112;SDS011;6622;49.752;6.100;2022-09-28T15:10:24;2.17;;;0.80;;
13112;SDS011;6622;49.752;6.100;2022-09-28T15:12:52;3.30;;;0.77;;
13112;SDS011;6622;49.752;6.100;2022-09-28T15:15:23;0.93;;;0.60;;
13112;SDS011;6622;49.752;6.100;2022-09-28T15:17:46;1.25;;;1.00;;
13112;SDS011;6622;49.752;6.100;2022-09-28T15:20:24;1.73;;;0.70;;
13112;SDS011;6622;49.752;6.100;2022-09-28T15:22:53;2.10;;;0.70;;
13112;SDS011;6622;49.752;6.100;2022-09-28T15:25:24;0.70;;;0.70;;
13112;SDS011;6622;49.752;6.100;2022-09-28T15:27:50;2.23;;;0.70;;
13112;SDS011;6622;49.752;6.100;2022-09-28T15:30:20;1.47;;;0.70;;
13112;SDS011;6622;49.752;6.100;2022-09-28T15:32:46;0.60;;;0.60;;
13112;SDS011;6622;49.752;6.100;2022-09-28T15:35:23;1.03;;;0.50;;
13112;SDS011;6622;49.752;6.100;2022-09-28T15:37:47;0.60;;;0.60;;
13112;SDS011;6622;49.752;6.100;2022-09-28T15:40:12;2.00;;;0.90;;
13112;SDS011;6622;49.752;6.100;2022-09-28T15:42:38;3.33;;;1.67;;
13112;SDS011;6622;49.752;6.100;2022-09-28T15:45:20;1.83;;;1.57;;
13112;SDS011;6622;49.752;6.100;2022-09-28T15:47:53;1.33;;;0.80;;
13112;SDS011;6622;49.752;6.100;2022-09-28T15:50:20;2.07;;;0.80;;
13112;SDS011;6622;49.752;6.100;2022-09-28T15:52:51;1.43;;;0.70;;
13112;SDS011;6622;49.752;6.100;2022-09-28T16:00:46;1.90;;;0.83;;
13112;SDS011;6622;49.752;6.100;2022-09-28T16:05:43;1.87;;;1.33;;
13112;SDS011;6622;49.752;6.100;2022-09-28T16:08:19;1.27;;;0.87;;
13112;SDS011;6622;49.752;6.100;2022-09-28T16:10:52;1.87;;;0.88;;
13112;SDS011;6622;49.752;6.100;2022-09-28T16:14:22;1.70;;;0.80;;
13112;SDS011;6622;49.752;6.100;2022-09-28T16:16:09;0.90;;;0.80;;
13112;SDS011;6622;49.752;6.100;2022-09-28T16:18:34;1.50;;;0.80;;
13112;SDS011;6622;49.752;6.100;2022-09-28T16:24:05;1.00;;;0.77;;
13112;SDS011;6622;49.752;6.100;2022-09-28T16:26:33;2.73;;;1.00;;
13112;SDS011;6622;49.752;6.100;2022-09-28T16:29:06;1.00;;;0.90;;
13112;SDS011;6622;49.752;6.100;2022-09-28T16:31:31;1.70;;;0.80;;
13112;SDS011;6622;49.752;6.100;2022-09-28T16:34:15;1.60;;;1.10;;
13112;SDS011;6622;49.752;6.100;2022-09-28T16:36:40;2.75;;;1.12;;
13112;SDS011;6622;49.752;6.100;2022-09-28T16:39:05;4.00;;;1.00;;
13112;SDS011;6622;49.752;6.100;2022-09-28T16:41:32;6.43;;;3.47;;
13112;SDS011;6622;49.752;6.100;2022-09-28T16:43:59;3.77;;;2.20;;
13112;SDS011;6622;49.752;6.100;2022-09-28T16:46:28;2.17;;;1.27;;
13112;SDS011;6622;49.752;6.100;2022-09-28T16:49:02;2.27;;;1.27;;
13112;SDS011;6622;49.752;6.100;2022-09-28T16:51:28;1.77;;;1.33;;
13112;SDS011;6622;49.752;6.100;2022-09-28T16:53:56;2.42;;;1.20;;
13112;SDS011;6622;49.752;6.100;2022-09-28T16:56:39;1.53;;;0.90;;
13112;SDS011;6622;49.752;6.100;2022-09-28T16:59:07;1.10;;;1.00;;
13112;SDS011;6622;49.752;6.100;2022-09-28T17:01:32;0.80;;;0.70;;
13112;SDS011;6622;49.752;6.100;2022-09-28T17:03:59;2.35;;;1.05;;
13112;SDS011;6622;49.752;6.100;2022-09-28T17:06:26;3.00;;;1.63;;
13112;SDS011;6622;49.752;6.100;2022-09-28T17:08:52;2.33;;;1.50;;
13112;SDS011;6622;49.752;6.100;2022-09-28T17:11:19;2.40;;;1.67;;
13112;SDS011;6622;49.752;6.100;2022-09-28T17:13:46;2.43;;;1.03;;